createdAt,value
2018-03-16T00:01:57.952Z,32.30
2018-03-16T00:04:25.607Z,27.43
2018-03-16T00:06:53.149Z,30.97
2018-03-16T00:09:20.694Z,33.93
2018-03-16T00:11:48.298Z,37.47
2018-03-16T00:14:15.872Z,34.93
2018-03-16T00:16:43.449Z,29.80
2018-03-16T00:19:11.554Z,25.50
2018-03-16T00:21:39.215Z,25.43
2018-03-16T00:24:06.913Z,24.50
2018-03-16T00:26:34.506Z,25.53
2018-03-16T00:29:03.623Z,27.27
2018-03-16T00:31:31.267Z,23.97
2018-03-16T00:33:58.978Z,25.37
2018-03-16T00:36:26.539Z,26.13
2018-03-16T00:38:54.120Z,24.17
2018-03-16T00:41:21.700Z,24.33
2018-03-16T00:43:49.244Z,26.10
2018-03-16T00:46:16.814Z,26.37
2018-03-16T00:48:44.429Z,26.10
2018-03-16T00:51:12.981Z,25.10
2018-03-16T00:53:40.558Z,24.90
2018-03-16T00:56:08.306Z,26.50
2018-03-16T00:58:35.879Z,25.77
2018-03-16T01:01:03.442Z,26.17
2018-03-16T01:03:31.439Z,25.87
2018-03-16T01:05:59.088Z,27.47
2018-03-16T01:08:26.634Z,25.40
2018-03-16T01:10:54.201Z,26.97
2018-03-16T01:13:21.967Z,25.70
2018-03-16T01:15:49.514Z,26.20
2018-03-16T01:18:17.070Z,25.67
2018-03-16T01:20:46.593Z,24.53
2018-03-16T01:23:14.806Z,24.63
2018-03-16T01:25:42.401Z,23.60
2018-03-16T01:28:10.050Z,23.97
2018-03-16T01:30:37.696Z,23.40
2018-03-16T01:33:05.675Z,20.80
2018-03-16T01:35:33.236Z,22.20
2018-03-16T01:38:00.794Z,22.83
2018-03-16T01:40:28.381Z,21.37
2018-03-16T01:42:55.960Z,21.30
2018-03-16T01:45:23.532Z,25.50
2018-03-16T01:47:51.128Z,25.47
2018-03-16T01:50:18.690Z,22.13
2018-03-16T01:52:57.934Z,22.70
2018-03-16T01:55:26.810Z,20.53
2018-03-16T01:57:54.361Z,23.00
2018-03-16T02:00:21.962Z,21.13
2018-03-16T02:02:49.543Z,22.73
2018-03-16T02:05:19.403Z,20.60
2018-03-16T02:07:48.064Z,23.43
2018-03-16T02:10:15.686Z,20.53
2018-03-16T02:12:43.289Z,23.40
2018-03-16T02:15:11.307Z,23.70
2018-03-16T02:17:38.861Z,22.43
2018-03-16T02:20:06.505Z,22.00
2018-03-16T02:22:34.060Z,25.23
2018-03-16T02:25:01.654Z,24.80
2018-03-16T02:27:29.442Z,24.00
2018-03-16T02:29:57.009Z,25.03
2018-03-16T02:32:24.599Z,23.93
2018-03-16T02:34:52.151Z,23.73
2018-03-16T02:37:19.989Z,25.00
2018-03-16T02:39:47.571Z,22.90
2018-03-16T02:42:15.148Z,24.83
2018-03-16T02:44:42.726Z,23.20
2018-03-16T02:47:11.980Z,25.03
2018-03-16T02:49:39.631Z,26.60
2018-03-16T02:52:07.380Z,32.50
2018-03-16T02:54:34.967Z,46.80
2018-03-16T02:57:02.546Z,54.30
2018-03-16T02:59:30.128Z,43.87
2018-03-16T03:01:58.579Z,35.20
2018-03-16T03:04:26.268Z,28.60
2018-03-16T03:06:55.827Z,28.30
2018-03-16T03:09:23.649Z,26.80
2018-03-16T03:11:53.391Z,29.77
2018-03-16T03:14:20.950Z,25.80
2018-03-16T03:16:48.526Z,29.23
2018-03-16T03:19:20.633Z,27.57
2018-03-16T03:21:48.356Z,26.80
2018-03-16T03:24:18.884Z,31.17
2018-03-16T03:26:46.805Z,25.97
2018-03-16T03:29:14.908Z,27.73
2018-03-16T03:31:42.508Z,25.60
2018-03-16T03:34:10.072Z,24.77
2018-03-16T03:36:37.617Z,25.93
2018-03-16T03:39:05.214Z,26.33
2018-03-16T03:41:32.769Z,27.70
2018-03-16T03:44:00.899Z,27.70
2018-03-16T03:46:28.532Z,26.07
2018-03-16T03:48:56.103Z,27.10
2018-03-16T03:51:24.734Z,26.97
2018-03-16T03:53:54.616Z,27.27
2018-03-16T03:56:26.127Z,27.07
2018-03-16T03:58:55.875Z,27.43
2018-03-16T04:01:23.455Z,24.57
2018-03-16T04:03:51.026Z,25.07
2018-03-16T04:06:18.589Z,30.37
2018-03-16T04:08:46.171Z,27.30
2018-03-16T04:11:14.041Z,27.37
2018-03-16T04:13:41.570Z,26.40
2018-03-16T04:16:09.167Z,26.37
2018-03-16T04:18:36.765Z,25.20
2018-03-16T04:21:04.375Z,27.60
2018-03-16T04:23:31.937Z,27.90
2018-03-16T04:25:59.510Z,26.03
2018-03-16T04:28:27.101Z,27.43
2018-03-16T04:30:54.665Z,25.40
2018-03-16T04:33:22.223Z,26.00
2018-03-16T04:35:49.874Z,27.90
2018-03-16T04:38:17.608Z,25.90
2018-03-16T04:40:45.200Z,37.70
2018-03-16T04:43:12.920Z,32.17
2018-03-16T04:45:40.577Z,29.97
2018-03-16T04:48:08.173Z,35.40
2018-03-16T04:50:35.768Z,35.10
2018-03-16T04:53:03.350Z,36.73
2018-03-16T04:55:31.009Z,32.97
2018-03-16T04:57:58.577Z,32.57
2018-03-16T05:00:26.193Z,31.37
2018-03-16T05:02:53.786Z,31.30
2018-03-16T05:05:21.704Z,31.13
2018-03-16T05:07:49.302Z,29.83
2018-03-16T05:10:16.882Z,30.23
2018-03-16T05:12:44.434Z,30.93
2018-03-16T05:15:12.026Z,31.70
2018-03-16T05:17:39.789Z,28.40
2018-03-16T05:20:07.387Z,32.00
2018-03-16T05:22:34.937Z,32.60
2018-03-16T05:25:02.536Z,30.57
2018-03-16T05:27:30.496Z,30.30
2018-03-16T05:29:58.207Z,32.30
2018-03-16T05:32:27.332Z,33.23
2018-03-16T05:34:54.883Z,35.40
2018-03-16T05:37:22.441Z,33.60
2018-03-16T05:39:50.003Z,31.80
2018-03-16T05:42:17.555Z,33.70
2018-03-16T05:44:45.112Z,31.27
2018-03-16T05:47:12.780Z,29.90
2018-03-16T05:49:40.490Z,27.90
2018-03-16T05:52:08.059Z,27.67
2018-03-16T05:54:35.629Z,28.23
2018-03-16T05:57:03.276Z,30.23
2018-03-16T05:59:30.823Z,32.47
2018-03-16T06:01:58.674Z,28.23
2018-03-16T06:04:26.231Z,29.30
2018-03-16T06:06:53.797Z,32.60
2018-03-16T06:09:21.377Z,28.97
2018-03-16T06:11:48.931Z,29.63
2018-03-16T06:14:16.552Z,26.90
2018-03-16T06:16:44.108Z,32.27
2018-03-16T06:19:12.117Z,29.87
2018-03-16T06:21:39.835Z,32.70
2018-03-16T06:24:07.514Z,31.73
2018-03-16T06:26:35.079Z,29.07
2018-03-16T06:29:02.667Z,30.00
2018-03-16T06:31:30.473Z,32.40
2018-03-16T06:33:58.037Z,30.37
2018-03-16T06:36:25.584Z,33.10
2018-03-16T06:38:53.131Z,34.40
2018-03-16T06:41:20.728Z,31.40
2018-03-16T06:43:48.275Z,35.27
2018-03-16T06:46:15.992Z,32.73
2018-03-16T06:48:43.570Z,34.30
2018-03-16T06:51:11.469Z,36.70
2018-03-16T06:53:39.013Z,32.53
2018-03-16T06:56:06.601Z,32.40
2018-03-16T06:58:34.165Z,34.00
2018-03-16T07:01:01.769Z,30.07
2018-03-16T07:03:30.211Z,31.30
2018-03-16T07:05:57.780Z,33.07
2018-03-16T07:08:26.961Z,33.87
2018-03-16T07:10:54.958Z,31.37
2018-03-16T07:15:57.254Z,33.87
2018-03-16T07:18:24.807Z,36.47
2018-03-16T07:20:52.403Z,36.20
2018-03-16T07:23:21.415Z,35.20
2018-03-16T07:25:49.009Z,31.10
2018-03-16T07:28:16.581Z,38.43
2018-03-16T07:30:44.148Z,33.33
2018-03-16T07:33:12.620Z,37.30
2018-03-16T07:35:40.875Z,37.27
2018-03-16T07:38:11.412Z,36.40
2018-03-16T07:40:39.027Z,34.27
2018-03-16T07:43:06.935Z,37.20
2018-03-16T07:45:40.590Z,36.80
2018-03-16T07:48:08.166Z,36.87
2018-03-16T07:50:35.750Z,41.87
2018-03-16T07:53:06.754Z,43.83
2018-03-16T07:55:35.337Z,45.40
2018-03-16T07:58:05.983Z,47.40
2018-03-16T08:00:33.684Z,47.50
2018-03-16T08:03:01.249Z,46.30
2018-03-16T08:05:28.888Z,48.47
2018-03-16T08:07:56.486Z,44.57
2018-03-16T08:10:24.016Z,44.70
2018-03-16T08:12:51.564Z,42.00
2018-03-16T08:15:19.232Z,42.40
2018-03-16T08:17:46.728Z,39.70
2018-03-16T08:20:14.283Z,40.63
2018-03-16T08:22:41.834Z,39.43
2018-03-16T08:25:09.677Z,37.57
2018-03-16T08:27:37.236Z,35.00
2018-03-16T08:30:04.731Z,34.77
2018-03-16T08:32:32.230Z,32.57
2018-03-16T08:34:59.732Z,35.33
2018-03-16T08:37:28.402Z,31.37
2018-03-16T08:39:55.923Z,32.90
2018-03-16T08:42:24.486Z,26.17
2018-03-16T08:44:51.983Z,25.23
2018-03-16T08:47:19.790Z,24.03
2018-03-16T08:49:47.368Z,20.77
2018-03-16T08:52:14.960Z,21.37
2018-03-16T08:54:42.601Z,21.40
2018-03-16T08:57:10.998Z,23.00
2018-03-16T08:59:38.731Z,19.40
2018-03-16T09:02:06.286Z,18.60
2018-03-16T09:04:33.856Z,17.93
2018-03-16T09:07:01.430Z,16.53
2018-03-16T09:09:29.781Z,15.73
2018-03-16T09:11:57.371Z,14.93
2018-03-16T09:14:26.324Z,14.40
2018-03-16T09:16:53.913Z,15.30
2018-03-16T09:19:21.461Z,15.20
2018-03-16T09:21:49.039Z,15.47
2018-03-16T09:24:16.782Z,11.87
2018-03-16T09:26:44.346Z,11.13
2018-03-16T09:29:12.673Z,12.70
2018-03-16T09:31:40.267Z,13.20
2018-03-16T09:34:07.846Z,14.33
2018-03-16T09:36:35.431Z,15.70
2018-03-16T09:39:03.037Z,16.07
2018-03-16T09:41:31.553Z,17.60
2018-03-16T09:43:59.121Z,18.43
2018-03-16T09:46:26.722Z,24.10
2018-03-16T09:48:54.291Z,24.20
2018-03-16T09:51:21.848Z,22.10
2018-03-16T09:53:49.424Z,26.87
2018-03-16T09:56:16.994Z,28.50
2018-03-16T09:58:44.582Z,29.63
2018-03-16T10:01:12.152Z,28.93
2018-03-16T10:03:39.657Z,30.47
2018-03-16T10:06:07.245Z,32.80
2018-03-16T10:08:34.813Z,31.87
2018-03-16T10:11:02.370Z,34.80
2018-03-16T10:13:30.693Z,36.00
2018-03-16T10:15:58.320Z,37.23
2018-03-16T10:18:25.896Z,32.80
2018-03-16T10:20:53.499Z,36.40
2018-03-16T10:23:21.349Z,36.57
2018-03-16T10:25:49.066Z,36.13
2018-03-16T10:28:16.648Z,34.03
2018-03-16T10:30:44.227Z,32.63
2018-03-16T10:33:11.829Z,33.97
2018-03-16T10:35:40.209Z,36.20
2018-03-16T10:38:07.786Z,35.47
2018-03-16T10:40:35.514Z,34.33
2018-03-16T10:43:03.119Z,35.07
2018-03-16T10:45:30.851Z,34.60
2018-03-16T10:47:58.437Z,34.63
2018-03-16T10:50:26.006Z,33.77
2018-03-16T10:52:53.580Z,35.53
2018-03-16T10:55:21.348Z,33.47
2018-03-16T10:57:48.943Z,30.20
2018-03-16T11:00:22.476Z,33.90
2018-03-16T11:02:51.863Z,32.70
2018-03-16T11:05:32.468Z,34.80
2018-03-16T11:08:06.705Z,35.90
2018-03-16T11:10:34.355Z,35.67
2018-03-16T11:13:01.917Z,27.90
2018-03-16T11:15:30.572Z,29.70
2018-03-16T11:18:05.456Z,24.23
2018-03-16T11:20:33.380Z,27.07
2018-03-16T11:23:00.956Z,23.40
2018-03-16T11:25:29.144Z,21.83
2018-03-16T11:27:59.818Z,21.83
2018-03-16T11:30:27.857Z,20.10
2018-03-16T11:32:55.406Z,19.80
2018-03-16T11:35:23.537Z,19.93
2018-03-16T11:37:51.101Z,20.63
2018-03-16T11:40:22.188Z,16.93
2018-03-16T11:42:49.750Z,17.33
2018-03-16T11:45:17.520Z,18.27
2018-03-16T11:47:45.365Z,18.13
2018-03-16T11:50:15.659Z,16.17
2018-03-16T11:52:44.407Z,17.23
2018-03-16T11:55:12.421Z,16.33
2018-03-16T11:57:40.019Z,16.30
2018-03-16T12:00:10.433Z,15.43
2018-03-16T12:02:38.029Z,17.83
2018-03-16T12:05:05.637Z,17.00
2018-03-16T12:07:33.216Z,17.90
2018-03-16T12:10:00.815Z,16.53
2018-03-16T12:12:28.399Z,18.70
2018-03-16T12:14:55.984Z,17.33
2018-03-16T12:17:23.603Z,15.00
2018-03-16T12:19:51.201Z,16.40
2018-03-16T12:22:18.792Z,16.63
2018-03-16T12:24:46.374Z,16.37
2018-03-16T12:27:14.027Z,16.90
2018-03-16T12:29:41.641Z,17.43
2018-03-16T12:32:09.245Z,16.50
2018-03-16T12:34:36.921Z,15.43
2018-03-16T12:37:04.496Z,15.30
2018-03-16T12:39:33.107Z,16.63
2018-03-16T12:42:00.686Z,14.80
2018-03-16T12:44:28.257Z,14.73
2018-03-16T12:46:55.889Z,13.80
2018-03-16T12:49:23.462Z,15.53
2018-03-16T12:51:51.067Z,16.23
2018-03-16T12:54:18.654Z,15.03
2018-03-16T12:56:46.234Z,16.57
2018-03-16T12:59:13.841Z,16.17
2018-03-16T13:01:41.413Z,16.47
2018-03-16T13:04:09.159Z,18.97
2018-03-16T13:06:36.737Z,16.80
2018-03-16T13:09:04.535Z,16.63
2018-03-16T13:11:34.228Z,16.77
2018-03-16T13:14:01.848Z,17.07
2018-03-16T13:16:29.415Z,17.30
2018-03-16T13:18:57.020Z,16.40
2018-03-16T13:21:24.606Z,17.80
2018-03-16T13:23:52.350Z,16.47
2018-03-16T13:26:19.948Z,17.27
2018-03-16T13:28:47.535Z,18.73
2018-03-16T13:31:15.529Z,16.30
2018-03-16T13:33:43.125Z,16.33
2018-03-16T13:36:10.982Z,18.23
2018-03-16T13:38:38.884Z,14.77
2018-03-16T13:41:06.710Z,17.93
2018-03-16T13:43:34.692Z,17.20
2018-03-16T13:46:02.653Z,16.97
2018-03-16T13:48:30.474Z,18.07
2018-03-16T13:50:58.058Z,16.30
2018-03-16T13:53:27.220Z,18.43
2018-03-16T13:55:54.854Z,17.53
2018-03-16T13:58:22.541Z,18.73
2018-03-16T14:00:50.134Z,17.70
2018-03-16T14:03:17.885Z,17.00
2018-03-16T14:05:45.607Z,18.70
2018-03-16T14:08:13.191Z,19.90
2018-03-16T14:10:40.747Z,19.17
2018-03-16T14:13:08.628Z,19.73
2018-03-16T14:15:36.339Z,20.27
2018-03-16T14:18:04.093Z,19.43
2018-03-16T14:20:32.243Z,19.93
2018-03-16T14:22:59.902Z,20.80
2018-03-16T14:25:27.606Z,22.87
2018-03-16T14:27:55.293Z,20.57
2018-03-16T14:30:22.831Z,22.07
2018-03-16T14:32:50.394Z,23.17
2018-03-16T14:35:18.228Z,22.30
2018-03-16T14:37:45.862Z,21.23
2018-03-16T14:40:13.570Z,19.77
2018-03-16T14:42:41.172Z,19.27
2018-03-16T14:45:08.789Z,18.20
2018-03-16T14:47:36.390Z,16.43
2018-03-16T14:50:04.020Z,15.90
2018-03-16T14:52:31.576Z,18.87
2018-03-16T14:54:59.214Z,15.63
2018-03-16T14:57:27.285Z,17.80
2018-03-16T14:59:55.047Z,15.30
2018-03-16T15:02:23.235Z,15.20
2018-03-16T15:04:56.721Z,14.83
2018-03-16T15:07:26.415Z,13.80
2018-03-16T15:09:57.772Z,13.70
2018-03-16T15:12:25.331Z,13.10
2018-03-16T15:14:55.660Z,11.63
2018-03-16T15:17:24.049Z,14.23
2018-03-16T15:19:55.809Z,13.80
2018-03-16T15:22:23.815Z,13.10
2018-03-16T15:25:02.136Z,13.90
2018-03-16T15:27:30.986Z,12.87
2018-03-16T15:29:59.868Z,14.37
2018-03-16T15:32:27.516Z,13.10
2018-03-16T15:34:58.170Z,13.10
2018-03-16T15:37:31.296Z,13.63
2018-03-16T15:40:06.519Z,13.53
2018-03-16T15:42:34.632Z,14.37
2018-03-16T15:45:02.285Z,12.90
2018-03-16T15:47:30.000Z,12.77
2018-03-16T15:50:00.194Z,12.60
2018-03-16T15:52:27.831Z,13.70
2018-03-16T15:54:58.797Z,14.73
2018-03-16T15:57:27.092Z,13.10
2018-03-16T15:59:55.025Z,13.80
2018-03-16T16:02:23.948Z,15.13
2018-03-16T16:04:51.546Z,13.80
2018-03-16T16:07:19.360Z,14.30
2018-03-16T16:09:46.972Z,13.73
2018-03-16T16:12:14.577Z,15.03
2018-03-16T16:14:42.246Z,14.97
2018-03-16T16:17:10.309Z,14.50
2018-03-16T16:19:38.019Z,13.50
2018-03-16T16:22:05.623Z,12.83
2018-03-16T16:24:33.196Z,13.37
2018-03-16T16:27:00.771Z,14.10
2018-03-16T16:29:28.778Z,14.60
2018-03-16T16:31:56.454Z,14.63
2018-03-16T16:34:25.541Z,17.53
2018-03-16T16:36:53.176Z,15.87
2018-03-16T16:39:21.075Z,17.07
2018-03-16T16:41:48.719Z,17.23
2018-03-16T16:44:16.338Z,15.73
2018-03-16T16:46:43.906Z,17.73
2018-03-16T16:49:11.941Z,15.70
2018-03-16T16:51:39.525Z,19.60
2018-03-16T16:54:07.140Z,15.90
2018-03-16T16:56:34.765Z,14.90
2018-03-16T16:59:02.326Z,16.07
2018-03-16T17:01:29.995Z,14.77
2018-03-16T17:03:57.571Z,14.80
2018-03-16T17:06:26.202Z,14.30
2018-03-16T17:08:54.150Z,15.47
2018-03-16T17:11:21.733Z,15.17
2018-03-16T17:13:49.306Z,15.40
2018-03-16T17:16:22.912Z,16.20
2018-03-16T17:21:40.505Z,19.00
2018-03-16T17:24:08.090Z,18.63
2018-03-16T17:26:36.171Z,18.73
2018-03-16T17:29:03.818Z,19.87
2018-03-16T17:31:31.454Z,18.80
2018-03-16T17:33:59.045Z,20.87
2018-03-16T17:36:28.147Z,20.40
2018-03-16T17:38:55.760Z,22.77
2018-03-16T17:41:25.962Z,20.50
2018-03-16T17:43:59.432Z,23.67
2018-03-16T17:46:27.322Z,22.87
2018-03-16T17:48:54.915Z,22.00
2018-03-16T17:51:22.543Z,20.27
2018-03-16T17:53:50.155Z,21.77
2018-03-16T17:56:17.782Z,20.70
2018-03-16T17:58:45.398Z,18.20
2018-03-16T18:01:12.990Z,22.27
2018-03-16T18:03:40.593Z,20.23
2018-03-16T18:06:09.005Z,21.30
2018-03-16T18:08:36.623Z,20.33
2018-03-16T18:11:04.220Z,23.47
2018-03-16T18:13:32.375Z,21.83
2018-03-16T18:15:59.992Z,25.67
2018-03-16T18:18:27.574Z,22.67
2018-03-16T18:20:55.141Z,21.23
2018-03-16T18:25:56.283Z,21.00
2018-03-16T18:28:24.515Z,17.73
2018-03-16T18:30:52.138Z,18.03
2018-03-16T18:33:20.148Z,19.53
2018-03-16T18:35:47.728Z,15.90
2018-03-16T18:38:15.298Z,76.33
2018-03-16T18:40:42.892Z,24.53
2018-03-16T18:43:11.315Z,19.20
2018-03-16T18:45:38.927Z,20.87
2018-03-16T18:48:06.540Z,24.47
2018-03-16T18:50:34.226Z,20.00
2018-03-16T18:53:01.830Z,17.10
2018-03-16T18:55:29.869Z,15.83
2018-03-16T18:57:57.457Z,18.00
2018-03-16T19:00:25.208Z,16.53
2018-03-16T19:02:52.805Z,15.33
2018-03-16T19:05:20.454Z,14.87
2018-03-16T19:07:53.871Z,14.87
2018-03-16T19:10:21.922Z,14.03
2018-03-16T19:12:52.745Z,16.67
2018-03-16T19:15:20.339Z,15.00
2018-03-16T19:17:52.107Z,15.37
2018-03-16T19:20:19.795Z,15.43
2018-03-16T19:22:48.610Z,15.33
2018-03-16T19:25:19.130Z,12.53
2018-03-16T19:27:46.764Z,15.57
2018-03-16T19:30:14.343Z,14.27
2018-03-16T19:32:41.929Z,13.90
2018-03-16T19:35:10.233Z,17.70
2018-03-16T19:37:37.841Z,14.33
2018-03-16T19:40:06.575Z,14.77
2018-03-16T19:42:34.166Z,14.33
2018-03-16T19:45:04.097Z,14.50
2018-03-16T19:47:32.573Z,14.77
2018-03-16T19:50:00.129Z,14.73
2018-03-16T19:52:27.685Z,15.83
2018-03-16T19:54:55.306Z,17.23
2018-03-16T19:57:23.499Z,16.20
2018-03-16T19:59:54.692Z,13.40
2018-03-16T20:02:24.173Z,15.40
2018-03-16T20:04:51.742Z,16.00
2018-03-16T20:07:19.371Z,17.53
2018-03-16T20:09:46.977Z,14.03
2018-03-16T20:12:14.699Z,14.60
2018-03-16T20:14:42.262Z,15.40
2018-03-16T20:17:10.611Z,15.10
2018-03-16T20:19:38.153Z,15.70
2018-03-16T20:22:05.861Z,15.50
2018-03-16T20:24:33.426Z,18.40
2018-03-16T20:27:01.027Z,18.03
2018-03-16T20:29:29.245Z,16.10
2018-03-16T20:31:56.849Z,16.13
2018-03-16T20:34:26.188Z,14.87
2018-03-16T20:36:53.792Z,13.60
2018-03-16T20:39:22.495Z,14.83
2018-03-16T20:41:50.166Z,14.53
2018-03-16T20:44:17.715Z,14.87
2018-03-16T20:46:45.308Z,20.00
2018-03-16T20:49:13.983Z,24.93
2018-03-16T20:51:41.683Z,21.50
2018-03-16T20:54:09.575Z,22.20
2018-03-16T20:56:37.272Z,22.37
2018-03-16T20:59:04.833Z,23.20
2018-03-16T21:01:32.408Z,19.90
2018-03-16T21:03:59.982Z,20.53
2018-03-16T21:06:28.033Z,18.90
2018-03-16T21:08:55.586Z,17.10
2018-03-16T21:11:23.167Z,16.47
2018-03-16T21:13:50.729Z,16.43
2018-03-16T21:16:18.290Z,14.90
2018-03-16T21:18:45.884Z,14.80
2018-03-16T21:21:13.439Z,15.50
2018-03-16T21:23:41.000Z,14.13
2018-03-16T21:26:08.614Z,16.10
2018-03-16T21:28:36.227Z,19.00
2018-03-16T21:31:03.803Z,20.50
2018-03-16T21:33:32.554Z,19.37
2018-03-16T21:36:00.204Z,20.57
2018-03-16T21:38:27.776Z,18.10
2018-03-16T21:40:55.342Z,16.10
2018-03-16T21:43:22.951Z,16.57
2018-03-16T21:45:50.559Z,34.23
2018-03-16T21:48:18.124Z,24.30
2018-03-16T21:50:45.694Z,136.43
2018-03-16T21:53:13.424Z,100.30
2018-03-16T21:55:41.042Z,66.60
2018-03-16T21:58:08.721Z,18.53
2018-03-16T22:00:36.289Z,37.30
2018-03-16T22:03:03.884Z,39.30
2018-03-16T22:05:31.552Z,29.40
2018-03-16T22:07:59.159Z,18.80
2018-03-16T22:10:26.706Z,20.17
2018-03-16T22:12:54.283Z,20.43
2018-03-16T22:15:23.322Z,14.70
2018-03-16T22:17:51.058Z,34.67
2018-03-16T22:20:19.104Z,128.07
2018-03-16T22:22:46.712Z,115.33
2018-03-16T22:25:14.881Z,365.07
2018-03-16T22:27:42.470Z,140.13
2018-03-16T22:30:10.290Z,199.83
2018-03-16T22:32:37.876Z,25.23
2018-03-16T22:35:07.824Z,19.77
2018-03-16T22:37:35.479Z,16.13
2018-03-16T22:40:03.060Z,14.20
2018-03-16T22:42:30.694Z,12.07
2018-03-16T22:44:58.258Z,18.17
2018-03-16T22:47:25.862Z,13.90
2018-03-16T22:49:53.456Z,14.30
2018-03-16T22:52:21.037Z,12.50
2018-03-16T22:54:48.664Z,14.37
2018-03-16T22:57:17.709Z,11.47
2018-03-16T22:59:45.364Z,11.23
2018-03-16T23:02:14.934Z,12.77
2018-03-16T23:04:43.206Z,13.10
2018-03-16T23:07:22.980Z,11.13
2018-03-16T23:09:50.669Z,11.30
2018-03-16T23:12:18.231Z,10.90
2018-03-16T23:14:45.813Z,12.43
2018-03-16T23:17:17.549Z,11.10
2018-03-16T23:19:45.888Z,16.27
2018-03-16T23:22:16.941Z,15.60
2018-03-16T23:24:47.550Z,13.83
2018-03-16T23:27:19.997Z,12.87
2018-03-16T23:29:47.568Z,11.37
2018-03-16T23:32:18.725Z,14.80
2018-03-16T23:34:46.374Z,14.37
2018-03-16T23:37:14.573Z,12.60
2018-03-16T23:39:42.152Z,16.80
2018-03-16T23:42:09.737Z,14.80
2018-03-16T23:44:37.980Z,13.80
2018-03-16T23:47:06.400Z,15.50
2018-03-16T23:49:34.021Z,13.37
2018-03-16T23:52:01.751Z,12.03
2018-03-16T23:54:31.150Z,14.20
2018-03-16T23:56:58.747Z,16.70
2018-03-16T23:59:26.311Z,15.40
